Time;durP1;ratioP1;P1;durP2;ratioP2;P2;SDS_P1;SDS_P2;PMS_P1;PMS_P2;Temp;Humidity;BMP_temperature;BMP_pressure;BME280_temperature;BME280_humidity;BME280_pressure;Samples;Min_cycle;Max_cycle;Signal;HPM_P1;HPM_P2
2021/11/10 00:00:31;;;;;;;60.90;50.30;;;;;;;4.33;80.58;101945.25;108009;1285;21995;-75
2021/11/10 00:03:11;;;;;;;62.70;48.80;;;;;;;4.32;80.45;101941.30;108257;1283;22004;-76
2021/11/10 00:05:41;;;;;;;56.80;47.40;;;;;;;4.29;80.42;101940.80;108355;1283;21989;-76
2021/11/10 00:08:10;;;;;;;61.90;49.50;;;;;;;4.26;80.46;101946.72;108412;1283;22686;-75
2021/11/10 00:10:39;;;;;;;58.80;47.80;;;;;;;4.25;80.56;101952.17;108366;1283;22836;-75
2021/11/10 00:13:17;;;;;;;60.30;47.90;;;;;;;4.25;80.67;101945.02;108035;1285;22054;-75
2021/11/10 00:15:52;;;;;;;56.10;46.80;;;;;;;4.25;80.63;101945.02;108244;1285;22022;-75
2021/11/10 00:18:22;;;;;;;57.40;46.00;;;;;;;4.21;80.50;101947.13;107990;1289;22011;-75
2021/11/10 00:20:51;;;;;;;64.60;52.50;;;;;;;4.18;80.62;101945.92;107997;1289;23055;-75
2021/11/10 00:23:21;;;;;;;74.90;63.20;;;;;;;4.19;80.57;101939.44;107952;1289;23116;-75
2021/11/10 00:25:50;;;;;;;101.70;90.70;;;;;;;4.16;80.45;101934.73;107992;1289;23512;-75
2021/11/10 00:28:19;;;;;;;68.80;54.30;;;;;;;4.13;80.47;101927.75;107945;1289;23753;-75
2021/11/10 00:30:49;;;;;;;69.90;55.20;;;;;;;4.09;80.47;101916.45;107606;1291;22033;-75
2021/11/10 00:33:18;;;;;;;70.10;53.80;;;;;;;4.07;80.48;101908.72;108051;1291;23797;-75
2021/11/10 00:35:47;;;;;;;57.00;46.90;;;;;;;4.04;80.43;101911.66;108129;1285;22030;-75
2021/11/10 00:38:16;;;;;;;61.80;49.50;;;;;;;4.01;80.36;101921.10;108343;1285;23621;-75
2021/11/10 00:40:45;;;;;;;61.70;49.40;;;;;;;3.99;80.46;101928.54;108250;1285;21986;-75
2021/11/10 00:43:15;;;;;;;60.70;48.80;;;;;;;3.98;80.51;101930.48;108354;1285;23057;-75
2021/11/10 00:45:44;;;;;;;58.80;50.00;;;;;;;3.99;80.59;101933.91;108103;1285;22043;-75
2021/11/10 00:48:13;;;;;;;57.40;47.70;;;;;;;4.00;80.53;101942.09;107989;1286;22489;-75
2021/11/10 00:50:43;;;;;;;59.10;51.40;;;;;;;3.99;80.51;101949.64;108349;1285;22016;-75
2021/11/10 00:53:14;;;;;;;60.10;50.40;;;;;;;4.01;80.57;101954.04;108057;1288;22007;-75
2021/11/10 00:55:43;;;;;;;57.10;48.80;;;;;;;4.04;80.60;101951.27;108066;1288;23077;-75
2021/11/10 00:58:13;;;;;;;62.70;53.20;;;;;;;4.06;80.54;101950.27;108108;1288;21993;-75
2021/11/10 01:00:42;;;;;;;61.40;49.90;;;;;;;4.05;80.38;101941.27;108004;1288;24221;-76
2021/11/10 01:03:14;;;;;;;60.50;51.30;;;;;;;4.03;80.35;101937.52;108062;1288;23846;-75
2021/11/10 01:05:43;;;;;;;71.30;54.10;;;;;;;4.03;80.41;101937.37;108053;1284;22032;-75
2021/11/10 01:08:12;;;;;;;64.20;54.40;;;;;;;4.03;80.28;101927.98;108498;1283;21988;-76
2021/11/10 01:10:42;;;;;;;64.20;51.40;;;;;;;3.99;80.18;101929.19;108005;1285;22136;-75
2021/11/10 01:13:11;;;;;;;62.40;51.90;;;;;;;3.95;80.14;101933.10;108059;1288;22068;-75
2021/11/10 01:15:42;;;;;;;63.20;51.60;;;;;;;3.92;80.20;101925.59;108155;1288;22512;-76
2021/11/10 01:18:12;;;;;;;59.20;51.10;;;;;;;3.90;80.22;101921.54;108064;1289;22033;-76
2021/11/10 01:20:43;;;;;;;62.50;51.70;;;;;;;3.86;80.19;101919.69;108156;1288;22088;-75
2021/11/10 01:23:12;;;;;;;63.70;53.90;;;;;;;3.82;80.19;101915.70;107403;1295;22044;-75
2021/11/10 01:25:42;;;;;;;76.70;65.30;;;;;;;3.79;80.10;101912.42;107526;1294;22046;-75
2021/11/10 01:28:11;;;;;;;78.80;69.90;;;;;;;3.76;80.17;101902.13;107637;1289;23835;-76
2021/11/10 01:30:42;;;;;;;71.00;60.70;;;;;;;3.73;80.15;101896.53;107527;1291;23698;-76
2021/11/10 01:33:12;;;;;;;70.40;56.60;;;;;;;3.69;80.17;101897.98;107818;1291;22073;-75
2021/11/10 01:35:42;;;;;;;68.50;56.00;;;;;;;3.65;80.19;101891.37;107808;1291;22271;-75
2021/11/10 01:38:14;;;;;;;68.30;54.20;;;;;;;3.60;80.17;101888.69;107807;1291;22017;-75
2021/11/10 01:40:44;;;;;;;65.20;53.80;;;;;;;3.57;80.29;101884.36;107310;1291;23084;-75
2021/11/10 01:43:17;;;;;;;66.80;55.10;;;;;;;3.60;80.48;101879.15;107724;1294;22150;-75
2021/11/10 01:45:55;;;;;;;72.60;58.80;;;;;;;3.61;80.53;101874.36;107699;1294;22031;-75
2021/11/10 01:48:25;;;;;;;64.50;53.10;;;;;;;3.59;80.16;101878.48;107825;1291;22521;-75
2021/11/10 01:50:55;;;;;;;59.00;51.30;;;;;;;3.53;80.22;101875.67;107953;1291;23047;-75
2021/11/10 01:53:24;;;;;;;61.90;52.30;;;;;;;3.48;80.22;101873.00;108005;1289;22528;-75
2021/11/10 01:55:53;;;;;;;65.30;53.40;;;;;;;3.44;80.36;101867.48;107947;1291;22413;-75
2021/11/10 01:58:23;;;;;;;61.70;50.20;;;;;;;3.41;80.37;101865.56;108064;1283;22296;-75
2021/11/10 02:00:55;;;;;;;65.30;53.70;;;;;;;3.39;80.47;101862.53;108485;1278;22113;-75
2021/11/10 02:03:25;;;;;;;62.90;50.00;;;;;;;3.37;80.62;101861.05;108661;1278;21988;-75
2021/11/10 02:06:00;;;;;;;64.20;55.40;;;;;;;3.36;80.59;101856.06;108534;1278;22006;-75
2021/11/10 02:08:36;;;;;;;64.00;53.20;;;;;;;3.33;80.61;101855.19;108384;1285;21983;-75
2021/11/10 02:11:12;;;;;;;62.20;53.10;;;;;;;3.30;80.62;101852.41;108425;1285;25117;-74
2021/11/10 02:13:48;;;;;;;64.50;54.40;;;;;;;3.28;80.64;101845.04;108364;1285;22298;-74
2021/11/10 02:16:17;;;;;;;63.60;54.20;;;;;;;3.26;80.75;101843.03;108430;1285;23071;-75
2021/11/10 02:18:50;;;;;;;65.40;55.30;;;;;;;3.24;80.76;101839.65;108255;1285;22321;-75
2021/11/10 02:21:23;;;;;;;67.00;56.50;;;;;;;3.22;80.81;101843.96;108320;1283;22019;-75
2021/11/10 02:23:53;;;;;;;66.20;54.60;;;;;;;3.20;80.96;101845.27;108467;1285;22742;-74
2021/11/10 02:26:25;;;;;;;67.00;58.10;;;;;;;3.20;81.01;101847.36;108257;1283;24302;-74
2021/11/10 02:28:54;;;;;;;68.40;58.90;;;;;;;3.23;81.08;101849.14;108378;1283;21975;-74
2021/11/10 02:31:34;;;;;;;68.50;58.20;;;;;;;3.24;81.17;101845.39;108403;1283;22479;-75
2021/11/10 02:34:04;;;;;;;69.10;59.40;;;;;;;3.26;81.22;101838.13;108450;1283;22241;-75
2021/11/10 02:36:34;;;;;;;74.40;60.90;;;;;;;3.29;81.24;101833.29;108391;1284;22080;-75
2021/11/10 02:39:10;;;;;;;76.70;60.00;;;;;;;3.33;81.17;101832.94;108419;1284;21993;-74
2021/11/10 02:41:40;;;;;;;70.80;60.60;;;;;;;3.35;81.19;101829.14;108336;1283;24298;-75
2021/11/10 02:44:11;;;;;;;79.20;63.30;;;;;;;3.36;81.08;101827.70;108102;1284;22162;-75
2021/11/10 02:46:40;;;;;;;76.00;61.20;;;;;;;3.38;80.97;101828.30;108325;1283;22035;-75
2021/11/10 02:49:10;;;;;;;74.90;59.70;;;;;;;3.37;80.91;101821.56;108418;1285;22329;-74
2021/11/10 02:52:02;;;;;;;69.50;60.10;;;;;;;3.37;80.84;101817.20;108454;1283;22154;-74
2021/11/10 02:54:35;;;;;;;;;;;;;;;3.33;80.59;101811.30;108058;1291;22055;-74
2021/11/10 02:57:07;;;;;;;70.30;58.10;;;;;;;3.21;80.64;101802.59;108009;1290;22958;-74
2021/11/10 02:59:37;;;;;;;64.40;55.90;;;;;;;3.16;80.69;101795.00;108101;1291;23497;-74
2021/11/10 03:02:08;;;;;;;73.00;57.60;;;;;;;3.13;80.62;101797.29;108163;1285;23670;-73
2021/11/10 03:04:46;;;;;;;63.20;56.10;;;;;;;3.08;80.59;101791.48;108391;1283;22438;-74
2021/11/10 03:07:16;;;;;;;71.40;59.20;;;;;;;3.03;80.69;101785.63;108400;1285;22111;-75
2021/11/10 03:09:48;;;;;;;66.90;57.50;;;;;;;2.99;80.70;101782.20;108198;1284;23614;-74
2021/11/10 03:12:22;;;;;;;74.50;59.80;;;;;;;2.96;80.71;101781.48;108337;1278;21985;-74
2021/11/10 03:14:51;;;;;;;73.50;62.70;;;;;;;2.93;80.88;101778.68;108749;1278;22022;-74
2021/11/10 03:17:22;;;;;;;73.00;58.40;;;;;;;2.93;80.87;101776.45;108368;1283;23045;-75
2021/11/10 03:19:53;;;;;;;71.00;60.60;;;;;;;2.94;80.95;101773.45;108369;1284;23750;-74
2021/11/10 03:22:23;;;;;;;72.40;60.80;;;;;;;2.93;80.90;101767.56;108434;1283;22388;-75
2021/11/10 03:24:53;;;;;;;67.80;57.70;;;;;;;2.94;81.07;101765.91;108399;1283;23357;-75
2021/11/10 03:27:25;;;;;;;70.40;58.30;;;;;;;2.93;81.02;101769.10;108397;1283;23024;-75
2021/11/10 03:29:56;;;;;;;68.60;56.70;;;;;;;2.90;81.03;101770.36;108235;1288;22001;-75
2021/11/10 03:32:27;;;;;;;69.60;57.50;;;;;;;2.86;81.02;101771.44;108362;1288;22049;-75
2021/11/10 03:34:59;;;;;;;63.90;54.30;;;;;;;2.83;81.21;101771.56;108179;1283;22031;-74
2021/11/10 03:37:35;;;;;;;65.40;53.60;;;;;;;2.79;81.21;101772.27;108386;1283;21990;-75
2021/11/10 03:40:07;;;;;;;70.60;57.80;;;;;;;2.78;81.31;101773.04;108350;1283;22005;-74
2021/11/10 03:42:37;;;;;;;69.30;55.60;;;;;;;2.77;81.33;101774.50;108481;1283;22015;-74
2021/11/10 03:45:09;;;;;;;63.70;53.20;;;;;;;2.75;81.31;101775.48;108427;1282;23705;-74
2021/11/10 03:47:39;;;;;;;64.20;53.40;;;;;;;2.74;81.31;101770.52;108237;1283;22004;-75
2021/11/10 03:50:08;;;;;;;64.00;56.20;;;;;;;2.72;81.40;101765.23;108290;1283;21986;-75
2021/11/10 03:52:38;;;;;;;64.90;55.50;;;;;;;2.72;81.41;101765.05;107865;1291;23059;-75
2021/11/10 03:55:09;;;;;;;65.10;55.60;;;;;;;2.72;81.53;101763.81;108129;1291;22132;-74
2021/11/10 03:57:42;;;;;;;63.30;53.80;;;;;;;2.72;81.54;101765.55;108058;1290;23071;-75
2021/11/10 04:00:12;;;;;;;65.50;55.30;;;;;;;2.71;81.53;101758.80;107901;1290;21990;-75
2021/11/10 04:02:44;;;;;;;67.20;54.10;;;;;;;2.71;81.51;101764.05;108008;1291;22060;-75
2021/11/10 04:05:23;;;;;;;61.30;52.40;;;;;;;2.72;81.50;101757.94;107623;1291;22113;-75
2021/11/10 04:07:54;;;;;;;62.80;53.50;;;;;;;2.73;81.52;101761.19;108059;1291;21998;-75
2021/11/10 04:10:24;;;;;;;63.80;53.00;;;;;;;2.75;81.50;101756.02;107813;1289;23077;-75
2021/11/10 04:12:54;;;;;;;63.10;53.80;;;;;;;2.75;81.56;101759.80;108048;1288;22023;-75
2021/11/10 04:15:29;;;;;;;61.30;54.10;;;;;;;2.74;81.60;101750.13;107966;1289;22184;-75
2021/11/10 04:18:00;;;;;;;63.80;54.00;;;;;;;2.73;81.61;101744.64;107995;1289;22026;-75
2021/11/10 04:20:30;;;;;;;63.30;52.00;;;;;;;2.71;81.59;101740.74;108046;1289;22020;-75
2021/11/10 04:23:00;;;;;;;64.80;53.70;;;;;;;2.70;81.65;101736.13;108141;1283;21983;-75
2021/11/10 04:25:30;;;;;;;64.70;54.10;;;;;;;2.68;81.63;101738.14;108429;1281;22023;-75
2021/11/10 04:27:59;;;;;;;67.20;53.80;;;;;;;2.67;81.58;101739.08;108461;1278;22419;-74
2021/11/10 04:30:32;;;;;;;62.00;52.70;;;;;;;2.67;81.66;101741.30;108341;1283;23055;-74
2021/11/10 04:33:01;;;;;;;65.90;53.00;;;;;;;2.67;81.67;101738.52;108438;1283;22008;-75
2021/11/10 04:35:31;;;;;;;64.70;52.60;;;;;;;2.68;81.60;101741.61;108486;1282;22145;-75
2021/11/10 04:38:01;;;;;;;60.50;51.00;;;;;;;2.71;81.67;101740.91;108377;1283;21997;-75
2021/11/10 04:40:30;;;;;;;60.90;49.80;;;;;;;2.72;81.71;101734.61;108336;1283;22147;-75
2021/11/10 04:43:00;;;;;;;62.80;52.10;;;;;;;2.70;81.58;101735.55;108413;1283;22449;-76
2021/11/10 04:45:38;;;;;;;58.40;49.90;;;;;;;2.69;81.52;101736.48;108363;1283;22753;-75
2021/11/10 04:48:07;;;;;;;65.20;54.40;;;;;;;2.68;81.62;101736.20;108133;1283;22196;-75
2021/11/10 04:50:38;;;;;;;67.60;52.20;;;;;;;2.65;81.59;101731.35;108369;1283;21999;-75
2021/11/10 04:53:08;;;;;;;66.30;53.80;;;;;;;2.62;81.55;101730.77;108385;1283;22251;-76
2021/11/10 04:55:41;;;;;;;63.80;51.20;;;;;;;2.60;81.67;101730.20;108143;1289;22161;-76
2021/11/10 04:58:11;;;;;;;57.60;49.80;;;;;;;2.58;81.70;101729.44;107981;1289;22005;-75
2021/11/10 05:00:41;;;;;;;57.10;47.70;;;;;;;2.56;81.80;101727.45;107672;1294;22047;-76
2021/11/10 05:03:10;;;;;;;58.70;51.60;;;;;;;2.55;81.83;101724.20;107681;1294;23672;-75
2021/11/10 05:05:39;;;;;;;58.50;48.30;;;;;;;2.55;81.91;101715.02;107595;1289;23072;-75
2021/11/10 05:08:09;;;;;;;61.70;50.00;;;;;;;2.53;81.84;101710.38;107637;1294;23820;-75
2021/11/10 05:10:38;;;;;;;61.60;50.90;;;;;;;2.53;81.84;101719.81;107488;1296;22027;-76
2021/11/10 05:13:09;;;;;;;58.40;49.60;;;;;;;2.52;81.85;101722.29;107296;1294;22017;-75
2021/11/10 05:15:38;;;;;;;60.40;48.20;;;;;;;2.53;81.87;101731.43;107616;1294;22188;-75
2021/11/10 05:18:12;;;;;;;58.60;48.70;;;;;;;2.55;81.96;101731.53;107594;1289;22006;-76
2021/11/10 05:20:44;;;;;;;60.40;50.80;;;;;;;2.57;82.07;101730.38;107772;1289;23694;-75
2021/11/10 05:23:13;;;;;;;59.00;49.00;;;;;;;2.60;81.95;101731.42;108068;1289;23106;-75
2021/11/10 05:25:43;;;;;;;60.20;50.10;;;;;;;2.61;81.81;101729.09;108197;1283;21992;-75
2021/11/10 05:28:12;;;;;;;58.50;48.30;;;;;;;2.61;81.78;101737.27;108381;1278;23615;-76
2021/11/10 05:30:42;;;;;;;56.40;48.30;;;;;;;2.62;81.70;101738.61;108689;1277;21993;-73
2021/11/10 05:33:13;;;;;;;59.90;50.50;;;;;;;2.62;81.58;101737.25;108709;1277;22001;-74
2021/11/10 05:35:43;;;;;;;58.00;49.50;;;;;;;2.61;81.60;101736.39;108737;1276;21986;-75
2021/11/10 05:38:12;;;;;;;66.70;50.50;;;;;;;2.62;81.65;101734.61;108727;1279;21999;-75
2021/11/10 05:40:41;;;;;;;59.10;49.30;;;;;;;2.64;81.67;101738.86;108740;1277;22066;-75
2021/11/10 05:43:11;;;;;;;56.00;47.20;;;;;;;2.64;81.53;101737.46;108703;1278;23682;-75
2021/11/10 05:45:40;;;;;;;55.30;47.10;;;;;;;2.66;81.66;101734.91;108797;1278;22071;-75
2021/11/10 05:48:10;;;;;;;58.20;48.90;;;;;;;2.68;81.62;101734.50;108154;1284;22035;-75
2021/11/10 05:50:39;;;;;;;59.60;48.30;;;;;;;2.66;81.57;101733.00;108252;1286;22978;-75
2021/11/10 05:53:08;;;;;;;52.60;45.10;;;;;;;2.63;81.29;101731.77;108382;1286;21995;-75
2021/11/10 05:55:40;;;;;;;58.20;49.30;;;;;;;2.61;81.31;101728.38;107812;1285;250810;-75
2021/11/10 05:58:11;;;;;;;66.50;52.80;;;;;;;2.60;81.44;101729.70;108330;1285;22067;-74
2021/11/10 06:00:40;;;;;;;57.80;51.30;;;;;;;2.57;81.40;101727.40;108332;1283;21996;-75
2021/11/10 06:03:09;;;;;;;60.60;51.70;;;;;;;2.54;81.50;101722.32;108385;1283;23611;-75
2021/11/10 06:05:39;;;;;;;58.40;48.30;;;;;;;2.53;81.53;101719.80;108473;1278;21987;-74
2021/11/10 06:08:10;;;;;;;57.80;48.70;;;;;;;2.53;81.54;101724.51;108274;1285;23695;-74
2021/11/10 06:10:59;;;;;;;58.90;49.50;;;;;;;2.53;81.58;101725.20;108258;1285;22008;-74
2021/11/10 06:13:28;;;;;;;57.00;49.00;;;;;;;2.52;81.74;101724.89;108320;1285;24165;-76
2021/11/10 06:15:57;;;;;;;56.20;49.60;;;;;;;2.53;81.81;101730.05;108324;1285;21999;-74
2021/11/10 06:18:29;;;;;;;56.60;49.80;;;;;;;2.55;81.88;101729.93;108125;1284;22000;-75
2021/11/10 06:21:00;;;;;;;58.80;48.80;;;;;;;2.56;81.91;101724.48;108193;1285;23767;-75
2021/11/10 06:23:30;;;;;;;60.50;51.30;;;;;;;2.56;81.97;101721.36;107828;1291;21989;-76
2021/11/10 06:25:59;;;;;;;61.80;52.70;;;;;;;2.57;82.05;101720.64;108026;1282;22046;-77
2021/11/10 06:28:29;;;;;;;55.80;49.60;;;;;;;2.60;82.02;101724.67;108398;1282;21975;-74
2021/11/10 06:30:58;;;;;;;58.90;50.70;;;;;;;2.61;82.11;101726.52;108314;1283;22032;-75
2021/11/10 06:33:30;;;;;;;62.30;54.50;;;;;;;2.63;82.12;101726.26;108346;1285;22036;-75
2021/11/10 06:35:59;;;;;;;66.20;53.90;;;;;;;2.64;82.14;101727.20;108307;1287;22007;-76
2021/11/10 06:38:28;;;;;;;68.30;57.50;;;;;;;2.66;82.14;101724.33;108131;1287;23196;-76
2021/11/10 06:40:58;;;;;;;62.60;51.60;;;;;;;2.69;82.13;101724.86;108178;1285;22269;-77
2021/11/10 06:43:28;;;;;;;67.30;53.50;;;;;;;2.72;82.16;101725.05;108315;1285;23400;-76
2021/11/10 06:45:57;;;;;;;74.60;60.50;;;;;;;2.77;82.25;101725.79;108408;1285;23707;-76
2021/11/10 06:48:27;;;;;;;73.00;59.10;;;;;;;2.85;82.29;101723.48;108494;1276;23685;-81
2021/11/10 06:50:58;;;;;;;71.00;55.70;;;;;;;2.89;82.14;101720.98;108608;1278;21964;-75
2021/11/10 06:53:27;;;;;;;74.40;58.80;;;;;;;2.91;82.10;101719.31;108858;1277;22132;-76
2021/11/10 06:55:57;;;;;;;74.60;57.90;;;;;;;2.94;82.09;101721.59;108728;1278;22000;-76
2021/11/10 06:58:26;;;;;;;69.40;58.00;;;;;;;2.95;81.97;101717.85;108746;1277;21981;-76
2021/11/10 07:00:56;;;;;;;66.60;55.50;;;;;;;2.97;82.04;101711.64;108399;1283;22010;-76
2021/11/10 07:03:25;;;;;;;64.80;53.10;;;;;;;3.02;82.06;101714.48;108460;1283;24288;-76
2021/11/10 07:05:58;;;;;;;68.40;53.80;;;;;;;3.06;82.05;101705.71;108384;1285;22091;-76
2021/11/10 07:08:30;;;;;;;65.30;52.70;;;;;;;3.10;82.05;101697.51;107752;1291;22008;-76
2021/11/10 07:10:59;;;;;;;67.00;53.60;;;;;;;3.13;82.05;101690.73;108037;1286;23165;-76
2021/11/10 07:13:28;;;;;;;64.50;51.40;;;;;;;3.17;82.07;101687.04;107967;1291;23060;-76
2021/11/10 07:15:58;;;;;;;64.10;50.70;;;;;;;3.21;82.10;101685.25;108005;1290;23134;-75
2021/11/10 07:18:27;;;;;;;59.70;49.30;;;;;;;3.25;82.16;101680.66;107599;1289;22062;-76
2021/11/10 07:20:57;;;;;;;62.60;47.20;;;;;;;3.29;82.23;101677.59;108062;1289;23622;-75
2021/11/10 07:23:26;;;;;;;57.80;45.30;;;;;;;3.35;82.24;101675.89;107710;1294;21998;-76
2021/11/10 07:25:57;;;;;;;69.40;56.30;;;;;;;3.41;82.20;101680.41;107669;1289;23695;-76
2021/11/10 07:28:26;;;;;;;74.50;62.50;;;;;;;3.48;82.22;101683.83;107899;1291;22020;-75
2021/11/10 07:30:55;;;;;;;80.70;64.30;;;;;;;3.57;82.35;101683.85;107803;1289;22057;-76
2021/11/10 07:33:24;;;;;;;100.00;77.80;;;;;;;3.65;82.23;101681.97;107873;1289;22003;-76
2021/11/10 07:35:54;;;;;;;66.90;52.30;;;;;;;3.72;82.09;101679.11;108092;1285;22043;-76
2021/11/10 07:38:26;;;;;;;62.70;47.00;;;;;;;3.78;81.99;101671.07;107875;1291;23129;-76
2021/11/10 07:41:00;;;;;;;54.00;42.80;;;;;;;3.86;81.90;101668.04;107808;1285;23036;-76
2021/11/10 07:43:29;;;;;;;56.30;45.20;;;;;;;3.94;81.92;101667.38;108238;1285;21991;-76
2021/11/10 07:46:14;;;;;;;51.80;41.80;;;;;;;4.02;81.90;101664.08;108414;1280;23711;-76
2021/11/10 07:48:48;;;;;;;51.70;41.80;;;;;;;4.14;81.80;101668.24;108334;1285;22533;-75
2021/11/10 07:51:23;;;;;;;63.70;54.10;;;;;;;4.23;81.73;101667.12;108378;1285;21956;-76
2021/11/10 07:53:54;;;;;;;54.70;44.80;;;;;;;4.35;81.64;101667.64;108192;1285;22008;-76
2021/11/10 07:56:34;;;;;;;55.80;45.60;;;;;;;4.46;81.47;101672.84;108221;1278;24354;-76
2021/11/10 07:59:03;;;;;;;44.20;39.20;;;;;;;4.59;81.43;101677.48;108837;1278;21991;-75
2021/11/10 08:01:32;;;;;;;45.70;38.50;;;;;;;4.70;81.30;101676.94;108918;1276;22282;-76
2021/11/10 08:04:04;;;;;;;41.20;36.70;;;;;;;4.84;81.10;101679.21;108419;1280;22646;-76
2021/11/10 08:06:35;;;;;;;47.30;37.80;;;;;;;4.98;81.00;101678.80;108523;1282;22016;-76
2021/11/10 08:09:04;;;;;;;50.20;38.20;;;;;;;5.15;80.95;101682.62;108416;1283;23586;-76
2021/11/10 08:11:34;;;;;;;47.30;38.40;;;;;;;5.29;80.43;101677.82;108490;1279;21988;-75
2021/11/10 08:14:03;;;;;;;48.30;35.80;;;;;;;5.44;80.25;101676.86;108340;1285;22208;-76
2021/11/10 08:16:33;;;;;;;44.80;34.90;;;;;;;5.60;80.07;101676.84;108232;1286;22012;-79
2021/11/10 08:19:04;;;;;;;46.90;36.60;;;;;;;5.79;79.89;101686.08;108363;1283;23623;-75
2021/11/10 08:21:34;;;;;;;39.10;33.40;;;;;;;5.97;79.71;101684.84;107820;1283;21999;-76
2021/11/10 08:24:05;;;;;;;57.00;44.20;;;;;;;6.16;79.26;101689.48;108249;1285;22018;-76
2021/11/10 08:26:34;;;;;;;65.10;53.10;;;;;;;6.33;78.82;101687.80;108330;1285;23694;-76
2021/11/10 08:29:03;;;;;;;50.90;36.70;;;;;;;6.48;78.29;101684.26;107878;1289;21986;-77
2021/11/10 08:31:33;;;;;;;37.80;29.70;;;;;;;6.63;77.70;101688.13;108105;1289;23519;-76
2021/11/10 08:34:02;;;;;;;46.60;31.60;;;;;;;6.78;77.50;101686.14;108038;1288;23804;-76
2021/11/10 08:36:32;;;;;;;53.00;34.00;;;;;;;6.93;76.89;101682.94;108069;1289;23623;-76
2021/11/10 08:39:01;;;;;;;34.90;28.30;;;;;;;7.07;76.38;101680.73;107964;1282;22243;-77
2021/11/10 08:41:30;;;;;;;34.10;28.80;;;;;;;7.19;75.90;101680.36;108038;1291;22247;-76
2021/11/10 08:44:00;;;;;;;32.50;27.00;;;;;;;7.31;75.31;101674.02;107807;1289;23612;-76
2021/11/10 08:46:32;;;;;;;34.60;26.80;;;;;;;7.44;74.74;101672.36;108013;1291;22915;-76
2021/11/10 08:49:01;;;;;;;;;;;;;;;7.53;74.09;101665.18;107872;1289;23074;-76
2021/11/10 08:51:34;;;;;;;27.20;23.90;;;;;;;7.54;73.23;101664.23;108024;1289;22002;-76
2021/11/10 08:54:06;;;;;;;26.90;22.60;;;;;;;7.62;72.73;101664.21;108165;1283;22947;-77
2021/11/10 08:56:35;;;;;;;25.80;22.90;;;;;;;7.72;72.66;101663.95;108321;1283;22039;-77
2021/11/10 08:59:06;;;;;;;37.70;25.50;;;;;;;7.80;72.16;101661.00;108311;1278;23034;-76
2021/11/10 09:01:37;;;;;;;29.80;22.60;;;;;;;7.91;71.76;101665.44;108691;1278;23699;-77
2021/11/10 09:04:07;;;;;;;25.80;22.30;;;;;;;8.00;71.27;101664.58;108772;1278;23692;-76
2021/11/10 09:06:36;;;;;;;25.60;20.60;;;;;;;8.10;70.84;101664.04;108819;1277;22839;-79
2021/11/10 09:09:07;;;;;;;28.70;24.40;;;;;;;8.20;70.67;101663.04;108997;1278;21937;-80
2021/11/10 09:11:40;;;;;;;28.40;23.70;;;;;;;8.33;70.72;101664.31;108815;1278;25039;-80
2021/11/10 09:14:09;;;;;;;31.00;26.40;;;;;;;8.48;70.48;101660.27;108809;1278;23050;-76
2021/11/10 09:16:39;;;;;;;30.50;23.20;;;;;;;8.62;69.99;101665.36;108357;1284;21990;-76
2021/11/10 09:19:10;;;;;;;22.50;20.10;;;;;;;8.74;69.34;101667.04;108152;1285;24320;-79
2021/11/10 09:21:42;;;;;;;28.20;25.20;;;;;;;8.83;68.79;101669.77;108215;1285;23676;-78
2021/11/10 09:24:21;;;;;;;60.40;37.40;;;;;;;8.96;68.77;101663.28;108249;1285;21996;-75
2021/11/10 09:26:51;;;;;;;37.10;27.20;;;;;;;9.12;68.87;101654.94;108230;1285;21998;-77
2021/11/10 09:29:20;;;;;;;26.10;23.10;;;;;;;9.32;68.64;101656.46;108596;1283;22021;-79
2021/11/10 09:31:52;;;;;;;30.00;24.90;;;;;;;9.50;68.03;101658.87;108232;1285;22036;-80
2021/11/10 09:34:22;;;;;;;34.50;26.20;;;;;;;9.66;67.66;101659.59;108018;1285;23588;-77
2021/11/10 09:36:53;;;;;;;33.10;25.80;;;;;;;9.82;67.08;101660.52;108451;1285;22032;-76
2021/11/10 09:39:24;;;;;;;26.00;21.80;;;;;;;9.93;66.34;101652.89;108304;1284;22014;-74
2021/11/10 09:41:54;;;;;;;22.60;20.20;;;;;;;10.04;65.85;101642.63;108396;1285;23735;-74
2021/11/10 09:44:25;;;;;;;20.40;17.90;;;;;;;10.09;64.68;101648.91;108338;1285;23954;-74
2021/11/10 09:46:55;;;;;;;21.50;17.80;;;;;;;10.13;64.55;101645.67;108199;1285;23952;-74
2021/11/10 09:49:24;;;;;;;18.80;16.90;;;;;;;10.18;63.93;101643.75;108401;1285;22470;-75
2021/11/10 09:51:53;;;;;;;20.60;17.30;;;;;;;10.21;63.63;101644.86;108442;1278;23631;-74
2021/11/10 09:54:22;;;;;;;28.90;21.80;;;;;;;10.25;63.29;101641.31;108766;1278;23730;-75
2021/11/10 09:56:54;;;;;;;22.30;20.00;;;;;;;10.33;63.36;101634.69;108660;1278;21998;-74
2021/11/10 09:59:24;;;;;;;23.10;18.50;;;;;;;10.50;63.37;101634.64;108819;1277;24311;-77
2021/11/10 10:01:54;;;;;;;24.90;19.30;;;;;;;10.68;63.15;101633.52;108856;1278;23126;-73
2021/11/10 10:04:25;;;;;;;21.50;18.10;;;;;;;10.85;62.19;101631.06;108830;1275;22134;-73
2021/11/10 10:06:55;;;;;;;20.50;17.00;;;;;;;10.97;61.44;101626.98;108728;1278;22459;-74
2021/11/10 10:09:24;;;;;;;19.90;17.90;;;;;;;11.14;61.34;101632.66;108780;1277;22442;-77
2021/11/10 10:11:53;;;;;;;23.30;21.00;;;;;;;11.33;61.03;101628.65;108674;1278;21976;-73
2021/11/10 10:14:23;;;;;;;21.40;19.10;;;;;;;11.58;60.96;101630.42;108758;1278;21984;-74
2021/11/10 10:16:52;;;;;;;18.20;15.50;;;;;;;11.80;60.03;101625.52;108235;1285;24407;-74
2021/11/10 10:19:23;;;;;;;18.80;16.50;;;;;;;11.93;58.83;101623.23;108281;1285;21994;-77
2021/11/10 10:22:02;;;;;;;19.50;17.60;;;;;;;12.08;58.76;101619.72;108270;1284;23573;-76
2021/11/10 10:24:54;;;;;;;33.70;22.50;;;;;;;12.33;58.32;101619.59;108421;1283;23872;-76
2021/11/10 10:27:33;;;;;;;17.60;14.80;;;;;;;12.61;57.79;101615.85;108477;1282;22007;-74
2021/11/10 10:30:29;;;;;;;18.90;15.00;;;;;;;12.79;56.45;101606.97;108452;1285;22035;-77
2021/11/10 10:33:05;;;;;;;18.00;14.80;;;;;;;13.04;56.58;101597.91;108427;1285;22977;-76
2021/11/10 10:35:47;;;;;;;15.00;12.90;;;;;;;13.30;55.51;101594.30;108690;1278;22010;-76
2021/11/10 10:38:21;;;;;;;14.80;13.30;;;;;;;13.54;54.78;101593.58;108778;1278;21994;-79
2021/11/10 10:40:56;;;;;;;16.80;15.00;;;;;;;13.83;54.91;101589.79;108486;1283;22051;-75
2021/11/10 10:43:25;;;;;;;21.20;16.40;;;;;;;14.17;53.33;101585.55;108417;1283;23079;-77
2021/11/10 10:45:59;;;;;;;19.70;15.90;;;;;;;14.42;52.84;101580.86;108418;1282;22234;-76
2021/11/10 10:48:31;;;;;;;19.80;14.90;;;;;;;14.58;51.66;101582.95;108520;1280;22864;-76
2021/11/10 10:51:05;;;;;;;16.30;14.40;;;;;;;14.51;49.91;101576.42;108380;1283;22154;-77
2021/11/10 10:53:41;;;;;;;14.10;12.50;;;;;;;14.47;50.31;101572.48;108459;1283;22510;-78
2021/11/10 10:56:29;;;;;;;14.70;12.60;;;;;;;14.39;49.95;101570.59;108236;1287;22054;-78
2021/11/10 10:59:11;;;;;;;14.30;12.80;;;;;;;14.34;49.74;101564.53;108153;1289;22106;-79
2021/11/10 11:01:51;;;;;;;14.90;12.70;;;;;;;14.16;49.40;101560.30;107737;1293;22267;-78
2021/11/10 11:04:26;;;;;;;14.20;12.70;;;;;;;14.01;50.65;101558.16;108084;1295;23055;-77
2021/11/10 11:07:07;;;;;;;14.90;13.50;;;;;;;14.11;51.22;101563.77;108032;1293;21966;-78
2021/11/10 11:09:45;;;;;;;18.10;15.10;;;;;;;14.13;50.73;101562.52;107872;1294;22000;-78
2021/11/10 11:12:26;;;;;;;15.10;12.40;;;;;;;14.11;50.32;101564.83;107767;1294;22779;-77
2021/11/10 11:15:28;;;;;;;12.60;11.30;;;;;;;13.84;48.90;101563.73;107937;1289;21983;-78
2021/11/10 11:17:57;;;;;;;16.80;15.10;;;;;;;13.29;49.23;101555.66;108325;1283;22224;-77
2021/11/10 11:20:35;;;;;;;18.20;13.70;;;;;;;13.03;50.46;101553.46;108493;1284;23468;-77
2021/11/10 11:23:06;;;;;;;15.90;14.30;;;;;;;12.78;50.85;101550.84;108449;1284;22210;-77
2021/11/10 11:25:39;;;;;;;16.40;14.70;;;;;;;12.57;51.23;101548.54;108466;1278;21978;-77
2021/11/10 11:28:16;;;;;;;17.00;14.20;;;;;;;12.32;51.29;101541.80;108810;1278;21997;-78